createdAt,value
2023-03-06T00:00:50.165Z,100319.28
2023-03-06T00:01:51.796Z,100327.34
2023-03-06T00:02:53.555Z,100321.88
2023-03-06T00:03:55.200Z,100322.81
2023-03-06T00:04:57.095Z,100317.41
2023-03-06T00:05:58.880Z,100318.31
2023-03-06T00:07:00.462Z,100323.69
2023-03-06T00:08:01.990Z,100318.47
2023-03-06T00:09:03.570Z,100319.44
2023-03-06T00:10:05.610Z,100320.31
2023-03-06T00:11:07.035Z,100318.47
2023-03-06T00:12:08.839Z,100322.00
2023-03-06T00:13:13.527Z,100316.63
2023-03-06T00:14:15.951Z,100312.09
2023-03-06T00:15:17.454Z,100309.38
2023-03-06T00:16:18.943Z,100304.00
2023-03-06T00:17:20.388Z,100304.00
2023-03-06T00:18:21.800Z,100307.53
2023-03-06T00:19:23.592Z,100316.50
2023-03-06T00:20:26.253Z,100301.34
2023-03-06T00:21:27.773Z,100305.78
2023-03-06T00:22:29.190Z,100308.47
2023-03-06T00:23:30.633Z,100305.75
2023-03-06T00:24:32.089Z,100306.72
2023-03-06T00:25:36.729Z,100307.63
2023-03-06T00:26:39.440Z,100295.03
2023-03-06T00:27:41.281Z,100301.34
2023-03-06T00:28:42.713Z,100298.66
2023-03-06T00:29:44.768Z,100296.84
2023-03-06T00:30:47.405Z,100290.66
2023-03-06T00:31:48.961Z,100295.13
2023-03-06T00:32:52.281Z,100283.47
2023-03-06T00:33:53.716Z,100286.13
2023-03-06T00:34:55.799Z,100282.53
2023-03-06T00:35:57.193Z,100294.19
2023-03-06T00:36:58.637Z,100286.16
2023-03-06T00:38:00.166Z,100279.91
2023-03-06T00:39:01.666Z,100277.22
2023-03-06T00:40:05.992Z,100281.75
2023-03-06T00:41:11.947Z,100284.41
2023-03-06T00:42:13.409Z,100276.44
2023-03-06T00:43:14.863Z,100279.13
2023-03-06T00:44:16.335Z,100271.97
2023-03-06T00:45:17.813Z,100270.16
2023-03-06T00:46:19.259Z,100275.50
2023-03-06T00:47:20.804Z,100274.59
2023-03-06T00:48:22.249Z,100273.69
2023-03-06T00:49:23.678Z,100270.09
2023-03-06T00:50:25.236Z,100266.50
2023-03-06T00:51:26.724Z,100259.38
2023-03-06T00:52:28.141Z,100265.66
2023-03-06T00:53:29.596Z,100258.50
2023-03-06T00:54:31.446Z,100250.53
2023-03-06T00:55:33.409Z,100258.56
2023-03-06T00:56:34.892Z,100259.44
2023-03-06T00:57:36.438Z,100258.53
2023-03-06T00:58:37.893Z,100249.53
2023-03-06T00:59:39.426Z,100258.50
2023-03-06T01:00:40.869Z,100252.19
2023-03-06T01:01:42.372Z,100254.00
2023-03-06T01:02:43.799Z,100245.94
2023-03-06T01:03:45.295Z,100244.16
2023-03-06T01:04:46.829Z,100243.25
2023-03-06T01:05:48.279Z,100252.19
2023-03-06T01:06:49.831Z,100245.06
2023-03-06T01:07:51.260Z,100243.25
2023-03-06T01:08:52.754Z,100233.44
2023-03-06T01:09:54.333Z,100231.66
2023-03-06T01:10:55.802Z,100242.38
2023-03-06T01:11:57.229Z,100231.69
2023-03-06T01:12:58.674Z,100223.63
2023-03-06T01:14:00.135Z,100228.06
2023-03-06T01:15:01.971Z,100230.81
2023-03-06T01:16:12.910Z,100221.84
2023-03-06T01:17:15.831Z,100227.25
2023-03-06T01:18:17.276Z,100218.28
2023-03-06T01:19:18.747Z,100222.78
2023-03-06T01:20:20.345Z,100211.09
2023-03-06T01:21:21.768Z,100210.31
2023-03-06T01:22:23.174Z,100206.91
2023-03-06T01:23:24.639Z,100216.66
2023-03-06T01:24:26.067Z,100206.81
2023-03-06T01:25:27.553Z,100201.38
2023-03-06T01:26:29.065Z,100204.03
2023-03-06T01:27:30.679Z,100207.59
2023-03-06T01:28:34.053Z,100204.03
2023-03-06T01:29:35.512Z,100199.50
2023-03-06T01:30:36.948Z,100203.13
2023-03-06T01:31:38.392Z,100193.34
2023-03-06T01:32:40.054Z,100195.22
2023-03-06T01:33:41.619Z,100194.38
2023-03-06T01:34:43.080Z,100192.59
2023-03-06T01:35:44.642Z,100187.22
2023-03-06T01:36:46.128Z,100183.63
2023-03-06T01:37:47.557Z,100181.88
2023-03-06T01:38:48.983Z,100184.53
2023-03-06T01:39:50.414Z,100175.56
2023-03-06T01:40:51.889Z,100165.66
2023-03-06T01:41:53.325Z,100175.56
2023-03-06T01:42:54.808Z,100165.69
2023-03-06T01:43:56.289Z,100165.78
2023-03-06T01:45:08.178Z,100166.72
2023-03-06T01:46:42.221Z,100166.63
2023-03-06T01:47:44.761Z,100170.22
2023-03-06T01:48:47.997Z,100165.72
2023-03-06T01:49:49.483Z,100163.03
2023-03-06T01:50:53.021Z,100163.03
2023-03-06T01:52:06.423Z,100164.16
2023-03-06T01:53:08.320Z,100155.16
2023-03-06T01:54:17.711Z,100156.03
2023-03-06T01:55:22.653Z,100155.13
2023-03-06T01:56:25.322Z,100156.03
2023-03-06T01:57:33.365Z,100147.06
2023-03-06T01:58:35.110Z,100147.13
2023-03-06T01:59:39.204Z,100143.53
2023-03-06T02:00:40.659Z,100142.63
2023-03-06T02:01:44.123Z,100142.59
2023-03-06T02:02:51.204Z,100144.38
2023-03-06T02:03:53.158Z,100141.63
2023-03-06T02:04:54.663Z,100141.72
2023-03-06T02:05:56.441Z,100146.28
2023-03-06T02:07:00.414Z,100141.78
2023-03-06T02:08:03.934Z,100133.78
2023-03-06T02:09:06.613Z,100137.34
2023-03-06T02:10:08.682Z,100134.66
2023-03-06T02:11:22.702Z,100131.00
2023-03-06T02:12:24.909Z,100138.28
2023-03-06T02:13:26.273Z,100138.38
2023-03-06T02:14:29.998Z,100135.72
2023-03-06T02:15:31.567Z,100134.81
2023-03-06T02:16:34.049Z,100130.38
2023-03-06T02:17:36.549Z,100133.97
2023-03-06T02:18:39.145Z,100134.84
2023-03-06T02:19:53.248Z,100127.69
2023-03-06T02:21:02.616Z,100120.53
2023-03-06T02:22:04.153Z,100125.94
2023-03-06T02:23:11.988Z,100122.34
2023-03-06T02:24:19.858Z,100125.91
2023-03-06T02:25:50.700Z,100111.69
2023-03-06T02:26:53.326Z,100124.19
2023-03-06T02:27:54.846Z,100121.50
2023-03-06T02:28:58.413Z,100119.69
2023-03-06T02:29:59.880Z,100117.06
2023-03-06T02:31:01.479Z,100112.63
2023-03-06T02:32:03.104Z,100117.97
2023-03-06T02:33:05.659Z,100103.56
2023-03-06T02:34:14.828Z,100106.31
2023-03-06T02:35:22.927Z,100107.25
2023-03-06T02:36:24.326Z,100113.53
2023-03-06T02:37:28.466Z,100101.03
2023-03-06T02:38:37.218Z,100107.22
2023-03-06T02:39:42.900Z,100107.31
2023-03-06T02:40:48.416Z,100106.41
2023-03-06T02:41:49.852Z,100099.25
2023-03-06T02:42:57.415Z,100101.03
2023-03-06T02:43:58.821Z,100097.41
2023-03-06T02:45:03.262Z,100109.09
2023-03-06T02:46:05.511Z,100099.28
2023-03-06T02:47:07.757Z,100100.13
2023-03-06T02:48:09.320Z,100096.66
2023-03-06T02:49:10.747Z,100101.03
2023-03-06T02:50:12.201Z,100106.44
2023-03-06T02:51:13.865Z,100100.19
2023-03-06T02:52:15.264Z,100108.31
2023-03-06T02:53:18.920Z,100098.41
2023-03-06T02:54:20.429Z,100091.28
2023-03-06T02:55:21.839Z,100091.28
2023-03-06T02:56:23.253Z,100093.06
2023-03-06T02:57:24.675Z,100095.72
2023-03-06T02:58:26.122Z,100085.00
2023-03-06T02:59:27.616Z,100093.97
2023-03-06T03:00:30.077Z,100091.28
2023-03-06T03:01:31.672Z,100081.34
2023-03-06T03:02:33.090Z,100087.72
2023-03-06T03:03:34.657Z,100093.97
2023-03-06T03:04:36.160Z,100085.94
2023-03-06T03:05:37.662Z,100085.09
2023-03-06T03:06:39.062Z,100086.91
2023-03-06T03:07:40.852Z,100089.63
2023-03-06T03:08:42.272Z,100086.94
2023-03-06T03:09:43.770Z,100082.41
2023-03-06T03:10:45.206Z,100089.63
2023-03-06T03:11:46.661Z,100088.75
2023-03-06T03:12:48.179Z,100090.50
2023-03-06T03:13:49.871Z,100082.44
2023-03-06T03:14:51.325Z,100079.75
2023-03-06T03:16:11.180Z,100076.19
2023-03-06T03:17:12.609Z,100076.19
2023-03-06T03:18:14.120Z,100065.53
2023-03-06T03:19:15.595Z,100063.75
2023-03-06T03:20:19.797Z,100062.81
2023-03-06T03:21:21.262Z,100073.53
2023-03-06T03:22:22.815Z,100063.69
2023-03-06T03:23:25.240Z,100067.31
2023-03-06T03:24:26.954Z,100058.38
2023-03-06T03:25:28.388Z,100057.47
2023-03-06T03:26:29.812Z,100064.69
2023-03-06T03:27:31.227Z,100066.44
2023-03-06T03:28:32.699Z,100061.09
2023-03-06T03:29:34.410Z,100066.44
2023-03-06T03:30:35.851Z,100058.38
2023-03-06T03:31:37.350Z,100059.31
2023-03-06T03:32:38.859Z,100057.47
2023-03-06T03:33:41.120Z,100059.31
2023-03-06T03:34:42.563Z,100066.44
2023-03-06T03:35:44.062Z,100058.44
2023-03-06T03:36:46.271Z,100060.19
2023-03-06T03:37:47.599Z,100064.66
2023-03-06T03:38:49.102Z,100064.63
2023-03-06T03:39:50.532Z,100050.28
2023-03-06T03:40:51.967Z,100061.91
2023-03-06T03:41:53.416Z,100065.56
2023-03-06T03:42:54.857Z,100060.19
2023-03-06T03:43:56.286Z,100065.56
2023-03-06T03:44:57.688Z,100054.75
2023-03-06T03:45:59.092Z,100061.06
2023-03-06T03:47:00.578Z,100052.97
2023-03-06T03:48:02.006Z,100052.13
2023-03-06T03:49:03.872Z,100065.59
2023-03-06T03:50:05.790Z,100063.78
2023-03-06T03:51:10.023Z,100054.84
2023-03-06T03:52:11.463Z,100056.66
2023-03-06T03:53:12.876Z,100053.94
2023-03-06T03:54:14.490Z,100057.47
2023-03-06T03:55:16.062Z,100040.47
2023-03-06T03:56:17.718Z,100054.75
2023-03-06T03:57:19.140Z,100043.19
2023-03-06T03:58:20.560Z,100053.00
2023-03-06T03:59:22.034Z,100053.94
2023-03-06T04:00:23.551Z,100049.47
2023-03-06T04:01:24.963Z,100054.84
2023-03-06T04:02:26.426Z,100050.41
2023-03-06T04:03:27.951Z,100045.91
2023-03-06T04:04:29.406Z,100046.78
2023-03-06T04:05:31.135Z,100050.34
2023-03-06T04:06:32.678Z,100038.69
2023-03-06T04:07:34.117Z,100055.72
2023-03-06T04:08:35.933Z,100050.38
2023-03-06T04:09:37.398Z,100045.91
2023-03-06T04:10:39.448Z,100047.72
2023-03-06T04:11:40.845Z,100037.84
2023-03-06T04:12:42.243Z,100053.06
2023-03-06T04:13:43.718Z,100045.84
2023-03-06T04:14:45.158Z,100053.03
2023-03-06T04:15:48.068Z,100045.91
2023-03-06T04:16:49.620Z,100047.72
2023-03-06T04:17:51.328Z,100054.81
2023-03-06T04:18:52.852Z,100057.53
2023-03-06T04:19:54.298Z,100049.47
2023-03-06T04:20:55.742Z,100055.81
2023-03-06T04:21:57.243Z,100056.66
2023-03-06T04:22:58.721Z,100060.22
2023-03-06T04:24:00.168Z,100060.22
2023-03-06T04:25:01.689Z,100048.63
2023-03-06T04:26:03.902Z,100057.63
2023-03-06T04:27:05.595Z,100051.31
2023-03-06T04:28:07.480Z,100061.16
2023-03-06T04:29:08.953Z,100062.09
2023-03-06T04:30:11.084Z,100070.09
2023-03-06T04:31:13.043Z,100066.53
2023-03-06T04:32:15.447Z,100061.16
2023-03-06T04:33:17.239Z,100065.59
2023-03-06T04:34:18.674Z,100069.19
2023-03-06T04:35:20.231Z,100072.78
2023-03-06T04:36:26.844Z,100069.19
2023-03-06T04:37:28.312Z,100068.28
2023-03-06T04:38:29.786Z,100069.19
2023-03-06T04:39:31.471Z,100064.69
2023-03-06T04:40:34.912Z,100070.97
2023-03-06T04:41:36.566Z,100074.50
2023-03-06T04:42:38.183Z,100077.22
2023-03-06T04:43:39.625Z,100076.28
2023-03-06T04:44:41.133Z,100081.66
2023-03-06T04:45:42.567Z,100077.16
2023-03-06T04:46:44.002Z,100081.66
2023-03-06T04:47:45.439Z,100080.78
2023-03-06T04:48:47.175Z,100083.47
2023-03-06T04:49:48.592Z,100084.38
2023-03-06T04:50:50.010Z,100079.88
2023-03-06T04:51:51.407Z,100079.84
2023-03-06T04:52:52.814Z,100084.28
2023-03-06T04:53:54.202Z,100085.22
2023-03-06T04:54:55.729Z,100087.88
2023-03-06T04:55:57.178Z,100078.00
2023-03-06T04:56:58.760Z,100087.91
2023-03-06T04:58:00.336Z,100089.63
2023-03-06T04:59:02.537Z,100086.06
2023-03-06T05:00:10.231Z,100085.13
2023-03-06T05:01:12.406Z,100095.03
2023-03-06T05:02:13.925Z,100090.56
2023-03-06T05:03:15.423Z,100082.50
2023-03-06T05:04:16.908Z,100085.19
2023-03-06T05:05:18.881Z,100088.75
2023-03-06T05:06:20.358Z,100091.41
2023-03-06T05:07:21.801Z,100085.09
2023-03-06T05:08:23.841Z,100089.59
2023-03-06T05:09:25.318Z,100088.69
2023-03-06T05:10:26.878Z,100085.94
2023-03-06T05:11:28.341Z,100090.41
2023-03-06T05:12:29.757Z,100087.75
2023-03-06T05:13:31.162Z,100093.09
2023-03-06T05:14:33.952Z,100094.88
2023-03-06T05:15:35.373Z,100087.69
2023-03-06T05:16:36.882Z,100094.88
2023-03-06T05:17:38.472Z,100090.41
2023-03-06T05:18:39.920Z,100096.66
2023-03-06T05:19:41.333Z,100080.50
2023-03-06T05:20:43.164Z,100096.59
2023-03-06T05:21:44.572Z,100093.00
2023-03-06T05:22:46.021Z,100097.44
2023-03-06T05:23:47.546Z,100092.06
2023-03-06T05:24:48.982Z,100088.50
2023-03-06T05:25:50.410Z,100099.22
2023-03-06T05:26:51.855Z,100099.19
2023-03-06T05:27:53.235Z,100099.25
2023-03-06T05:28:55.324Z,100110.00
2023-03-06T05:29:56.756Z,100103.72
2023-03-06T05:30:58.152Z,100100.13
2023-03-06T05:31:59.576Z,100100.13
2023-03-06T05:33:01.111Z,100099.22
2023-03-06T05:34:02.563Z,100102.81
2023-03-06T05:35:05.595Z,100095.66
2023-03-06T05:36:09.049Z,100108.13
2023-03-06T05:37:10.468Z,100103.66
2023-03-06T05:38:12.122Z,100106.34
2023-03-06T05:39:13.614Z,100104.53
2023-03-06T05:40:16.181Z,100102.88
2023-03-06T05:41:17.660Z,100097.41
2023-03-06T05:42:19.173Z,100104.53
2023-03-06T05:43:20.801Z,100105.41
2023-03-06T05:44:23.850Z,100103.66
2023-03-06T05:45:25.608Z,100108.16
2023-03-06T05:46:27.205Z,100106.31
2023-03-06T05:47:28.616Z,100104.50
2023-03-06T05:48:30.184Z,100106.25
2023-03-06T05:49:33.659Z,100109.81
2023-03-06T05:50:35.118Z,100115.19
2023-03-06T05:51:36.771Z,100108.97
2023-03-06T05:52:39.579Z,100108.94
2023-03-06T05:53:40.985Z,100108.00
2023-03-06T05:54:42.975Z,100111.59
2023-03-06T05:55:44.437Z,100106.25
2023-03-06T05:56:45.831Z,100106.25
2023-03-06T05:57:48.220Z,100109.00
2023-03-06T05:58:50.879Z,100108.09
2023-03-06T05:59:52.352Z,100110.69
2023-03-06T06:00:53.834Z,100108.00
2023-03-06T06:01:56.174Z,100116.94
2023-03-06T06:03:01.008Z,100109.78
2023-03-06T06:04:02.435Z,100109.78
2023-03-06T06:05:04.733Z,100101.69
2023-03-06T06:06:10.953Z,100104.38
2023-03-06T06:07:14.593Z,100104.38
2023-03-06T06:08:16.181Z,100112.47
2023-03-06T06:09:17.605Z,100109.78
2023-03-06T06:10:19.037Z,100108.91
2023-03-06T06:11:21.074Z,100112.53
2023-03-06T06:12:22.683Z,100119.66
2023-03-06T06:13:24.259Z,100117.84
2023-03-06T06:14:26.155Z,100114.22
2023-03-06T06:15:28.904Z,100116.06
2023-03-06T06:16:30.392Z,100110.69
2023-03-06T06:17:31.827Z,100115.13
2023-03-06T06:18:33.254Z,100114.31
2023-03-06T06:19:34.769Z,100113.38
2023-03-06T06:20:37.372Z,100111.53
2023-03-06T06:21:38.776Z,100124.94
2023-03-06T06:22:40.232Z,100115.13
2023-03-06T06:23:42.343Z,100124.97
2023-03-06T06:24:43.716Z,100126.75
2023-03-06T06:25:45.185Z,100120.53
2023-03-06T06:26:49.358Z,100116.88
2023-03-06T06:27:50.759Z,100123.16
2023-03-06T06:28:52.192Z,100127.69
2023-03-06T06:29:53.606Z,100122.25
2023-03-06T06:30:55.177Z,100122.25
2023-03-06T06:31:56.825Z,100124.94
2023-03-06T06:32:58.486Z,100125.84
2023-03-06T06:33:59.894Z,100127.63
2023-03-06T06:35:01.349Z,100118.66
2023-03-06T06:36:02.934Z,100126.75
2023-03-06T06:37:04.549Z,100129.38
2023-03-06T06:38:06.017Z,100122.25
2023-03-06T06:39:08.039Z,100124.03
2023-03-06T06:40:10.144Z,100119.53
2023-03-06T06:41:38.944Z,100122.22
2023-03-06T06:42:38.897Z,100124.03
2023-03-06T06:43:41.187Z,100130.28
2023-03-06T06:44:42.715Z,100124.94
2023-03-06T06:45:44.219Z,100118.59
2023-03-06T06:48:08.724Z,100126.69
2023-03-06T06:49:10.402Z,100115.88
2023-03-06T06:50:13.818Z,100124.94
2023-03-06T06:51:16.946Z,100112.44
2023-03-06T06:52:18.757Z,100131.19
2023-03-06T06:53:20.288Z,100132.97
2023-03-06T06:54:22.302Z,100124.03
2023-03-06T06:55:23.757Z,100126.69
2023-03-06T06:56:25.478Z,100134.78
2023-03-06T06:57:26.988Z,100124.88
2023-03-06T06:58:28.411Z,100133.06
2023-03-06T06:59:29.858Z,100131.25
2023-03-06T07:00:31.274Z,100129.44
2023-03-06T07:01:32.878Z,100133.00
2023-03-06T07:02:34.420Z,100130.31
2023-03-06T07:03:36.067Z,100130.31
2023-03-06T07:04:44.284Z,100136.59
2023-03-06T07:05:55.837Z,100124.06
2023-03-06T07:06:58.083Z,100137.50
2023-03-06T07:07:59.524Z,100131.25
2023-03-06T07:09:00.986Z,100128.63
2023-03-06T07:10:08.148Z,100124.94
2023-03-06T07:11:18.964Z,100123.22
2023-03-06T07:12:20.431Z,100120.69
2023-03-06T07:13:21.888Z,100124.13
2023-03-06T07:14:23.432Z,100133.94
2023-03-06T07:15:27.019Z,100135.78
2023-03-06T07:16:28.483Z,100125.94
2023-03-06T07:17:29.970Z,100130.47
2023-03-06T07:18:31.494Z,100129.47
2023-03-06T07:19:32.970Z,100128.63
2023-03-06T07:20:34.778Z,100134.84
2023-03-06T07:21:36.224Z,100133.91
2023-03-06T07:22:50.428Z,100128.56
2023-03-06T07:23:54.185Z,100128.63
2023-03-06T07:24:55.739Z,100131.16
2023-03-06T07:25:57.847Z,100131.22
2023-03-06T07:26:59.248Z,100134.75
2023-03-06T07:28:00.749Z,100128.53
2023-03-06T07:29:03.566Z,100133.00
2023-03-06T07:30:06.353Z,100131.13
2023-03-06T07:31:09.936Z,100132.06
2023-03-06T07:32:11.816Z,100135.72
2023-03-06T07:33:13.963Z,100134.72
2023-03-06T07:34:15.479Z,100135.59
2023-03-06T07:35:20.487Z,100141.84
2023-03-06T07:36:23.915Z,100143.59
2023-03-06T07:37:25.358Z,100136.50
2023-03-06T07:38:26.858Z,100139.13
2023-03-06T07:39:30.026Z,100126.59
2023-03-06T07:40:31.672Z,100143.53
2023-03-06T07:41:33.406Z,100145.44
2023-03-06T07:42:35.427Z,100139.97
2023-03-06T07:43:36.914Z,100132.63
2023-03-06T07:44:38.340Z,100130.94
2023-03-06T07:45:39.827Z,100136.34
2023-03-06T07:46:41.437Z,100148.03
2023-03-06T07:47:42.979Z,100140.84
2023-03-06T07:48:44.700Z,100135.41
2023-03-06T07:49:46.254Z,100137.22
2023-03-06T07:50:55.638Z,100144.38
2023-03-06T07:51:58.318Z,100140.03
2023-03-06T07:52:59.775Z,100131.19
2023-03-06T07:54:01.244Z,100135.75
2023-03-06T07:55:02.857Z,100144.69
2023-03-06T07:56:08.953Z,100139.38
2023-03-06T07:57:10.512Z,100138.41
2023-03-06T07:58:11.936Z,100134.91
2023-03-06T07:59:13.409Z,100138.50
2023-03-06T08:00:15.650Z,100138.50
2023-03-06T08:01:19.814Z,100141.31
2023-03-06T08:02:21.287Z,100144.84
2023-03-06T08:03:22.657Z,100137.75
2023-03-06T08:04:24.115Z,100131.56
2023-03-06T08:05:25.517Z,100138.72
2023-03-06T08:06:27.841Z,100140.50
2023-03-06T08:07:30.443Z,100141.44
2023-03-06T08:08:33.673Z,100138.81
2023-03-06T08:09:35.834Z,100137.75
2023-03-06T08:10:37.408Z,100140.56
2023-03-06T08:11:38.870Z,100145.00
2023-03-06T08:12:40.309Z,100132.47
2023-03-06T08:13:41.908Z,100151.34
2023-03-06T08:14:43.387Z,100140.59
2023-03-06T08:15:48.645Z,100142.38
2023-03-06T08:16:51.177Z,100144.13
2023-03-06T08:17:52.938Z,100138.78
2023-03-06T08:18:54.729Z,100122.56
2023-03-06T08:19:56.211Z,100146.00
2023-03-06T08:21:09.051Z,100144.22
2023-03-06T08:22:11.177Z,100143.28
2023-03-06T08:23:12.464Z,100144.22
2023-03-06T08:24:16.572Z,100145.03
2023-03-06T08:25:18.107Z,100142.31
2023-03-06T08:26:25.473Z,100146.81
2023-03-06T08:27:26.921Z,100145.00
2023-03-06T08:28:31.427Z,100148.56
2023-03-06T08:29:32.918Z,100142.31
2023-03-06T08:30:34.362Z,100136.97
2023-03-06T08:31:41.242Z,100136.94
2023-03-06T08:32:42.721Z,100142.25
2023-03-06T08:33:44.181Z,100140.53
2023-03-06T08:34:45.701Z,100143.28
2023-03-06T08:35:47.405Z,100141.44
2023-03-06T08:36:48.874Z,100142.44
2023-03-06T08:37:50.280Z,100141.53
2023-03-06T08:38:52.021Z,100137.97
2023-03-06T08:39:53.449Z,100136.22
2023-03-06T08:40:54.879Z,100134.50
2023-03-06T08:41:56.295Z,100142.53
2023-03-06T08:42:57.735Z,100139.88
2023-03-06T08:43:59.277Z,100147.88
2023-03-06T08:45:00.768Z,100138.91
2023-03-06T08:46:02.497Z,100149.59
2023-03-06T08:47:04.934Z,100146.03
2023-03-06T08:48:06.488Z,100145.09
2023-03-06T08:49:08.011Z,100150.47
2023-03-06T08:50:10.306Z,100153.09
2023-03-06T08:51:11.732Z,100149.56
2023-03-06T08:52:13.151Z,100147.81
2023-03-06T08:53:15.022Z,100152.31
2023-03-06T08:54:16.485Z,100154.03
2023-03-06T08:55:17.931Z,100150.34
2023-03-06T08:56:31.123Z,100147.66
2023-03-06T08:57:32.542Z,100153.94
2023-03-06T08:58:34.048Z,100154.78
2023-03-06T08:59:36.752Z,100157.50
2023-03-06T09:00:38.371Z,100153.91
2023-03-06T09:01:40.606Z,100167.31
2023-03-06T09:02:42.093Z,100149.41
2023-03-06T09:03:43.850Z,100163.75
2023-03-06T09:04:45.315Z,100162.75
2023-03-06T09:05:47.135Z,100163.63
2023-03-06T09:06:48.592Z,100160.97
2023-03-06T09:07:50.042Z,100165.41
2023-03-06T09:08:52.802Z,100168.94
2023-03-06T09:09:58.320Z,100160.91
2023-03-06T09:10:59.863Z,100170.78
2023-03-06T09:12:01.317Z,100168.84
2023-03-06T09:13:02.770Z,100168.88
2023-03-06T09:14:05.478Z,100171.53
2023-03-06T09:15:07.606Z,100169.78
2023-03-06T09:16:09.479Z,100164.34
2023-03-06T09:17:10.984Z,100161.66
2023-03-06T09:18:12.410Z,100170.66
2023-03-06T09:19:13.824Z,100168.84
2023-03-06T09:20:15.666Z,100168.88
2023-03-06T09:21:17.116Z,100166.25
2023-03-06T09:22:18.554Z,100165.25
2023-03-06T09:23:19.949Z,100166.97
2023-03-06T09:24:21.645Z,100163.38
2023-03-06T09:25:23.296Z,100154.44
2023-03-06T09:26:35.948Z,100167.94
2023-03-06T09:27:45.371Z,100163.50
2023-03-06T09:28:46.859Z,100161.72
2023-03-06T09:29:48.333Z,100167.09
2023-03-06T09:30:50.231Z,100162.56
2023-03-06T09:31:51.737Z,100156.25
2023-03-06T09:32:53.150Z,100163.44
2023-03-06T09:33:54.571Z,100166.13
2023-03-06T09:34:56.085Z,100169.59
2023-03-06T09:35:58.456Z,100168.84
2023-03-06T09:37:02.125Z,100167.03
2023-03-06T09:38:03.544Z,100164.28
2023-03-06T09:39:05.041Z,100161.63
2023-03-06T09:40:07.185Z,100167.00
2023-03-06T09:41:15.526Z,100166.09
2023-03-06T09:42:21.350Z,100167.91
2023-03-06T09:43:39.162Z,100170.63
2023-03-06T09:44:43.219Z,100157.97
2023-03-06T09:45:45.565Z,100166.94
2023-03-06T09:47:18.718Z,100164.31
2023-03-06T09:48:27.906Z,100158.13
2023-03-06T09:49:47.637Z,100163.47
2023-03-06T09:51:01.358Z,100161.72
2023-03-06T09:52:23.278Z,100159.91
2023-03-06T09:53:56.533Z,100168.78
2023-03-06T09:55:08.901Z,100167.94
2023-03-06T09:56:16.676Z,100164.38
2023-03-06T09:57:31.667Z,100167.03
2023-03-06T09:58:41.338Z,100156.31
2023-03-06T09:59:47.661Z,100162.53
2023-03-06T10:00:58.041Z,100167.03
2023-03-06T10:02:24.723Z,100169.75
2023-03-06T10:04:03.539Z,100162.41
2023-03-06T10:05:12.682Z,100161.63
2023-03-06T10:06:30.036Z,100166.16
2023-03-06T10:08:00.670Z,100163.47
2023-03-06T10:09:25.896Z,100166.94
2023-03-06T10:10:52.527Z,100164.22
2023-03-06T10:12:03.676Z,100168.69
2023-03-06T10:13:37.841Z,100171.41
2023-03-06T10:14:53.931Z,100171.44
2023-03-06T10:16:06.340Z,100170.50
2023-03-06T10:17:17.712Z,100164.34
2023-03-06T10:18:19.149Z,100165.25
2023-03-06T10:19:21.737Z,100163.47
2023-03-06T10:20:28.925Z,100166.16
2023-03-06T10:21:48.736Z,100163.47
2023-03-06T10:23:27.678Z,100169.78
2023-03-06T10:24:57.120Z,100176.94
2023-03-06T10:26:07.149Z,100168.88
2023-03-06T10:27:18.341Z,100161.69
2023-03-06T10:28:30.574Z,100170.66
2023-03-06T10:30:02.611Z,100179.66
2023-03-06T10:31:16.705Z,100179.59
2023-03-06T10:32:24.042Z,100176.81
2023-03-06T10:34:03.930Z,100170.50
2023-03-06T10:35:15.545Z,100175.97
2023-03-06T10:36:18.532Z,100167.84
2023-03-06T10:37:22.790Z,100166.19
2023-03-06T10:38:38.185Z,100169.78
2023-03-06T10:39:39.780Z,100168.94
2023-03-06T10:41:10.583Z,100172.53
2023-03-06T10:42:12.181Z,100173.38
2023-03-06T10:43:13.817Z,100176.16
2023-03-06T10:44:15.142Z,100168.97
2023-03-06T10:45:17.247Z,100177.13
2023-03-06T10:46:26.911Z,100176.19
2023-03-06T10:47:36.798Z,100171.75
2023-03-06T10:48:41.974Z,100176.25
2023-03-06T10:49:57.795Z,100165.50
2023-03-06T10:51:19.229Z,100173.53
2023-03-06T10:52:22.562Z,100165.50
2023-03-06T10:53:28.897Z,100172.69
2023-03-06T10:54:39.515Z,100171.06
2023-03-06T10:55:46.372Z,100170.19
2023-03-06T10:56:48.089Z,100162.81
2023-03-06T10:57:49.567Z,100168.19
2023-03-06T10:59:06.420Z,100170.84
2023-03-06T11:00:31.285Z,100168.34
2023-03-06T11:01:33.314Z,100173.69
2023-03-06T11:02:38.363Z,100174.66
2023-03-06T11:03:39.863Z,100168.41
2023-03-06T11:04:46.416Z,100170.19
2023-03-06T11:06:10.018Z,100164.00
2023-03-06T11:07:19.263Z,100169.38
2023-03-06T11:08:22.484Z,100166.63
2023-03-06T11:09:26.077Z,100164.06
2023-03-06T11:10:29.654Z,100174.78
2023-03-06T11:11:37.502Z,100168.44
2023-03-06T11:12:41.324Z,100171.13
2023-03-06T11:13:44.453Z,100161.19
2023-03-06T11:14:45.876Z,100168.41
2023-03-06T11:16:18.597Z,100165.78
2023-03-06T11:17:32.093Z,100167.72
2023-03-06T11:18:42.695Z,100164.19
2023-03-06T11:19:44.121Z,100159.78
2023-03-06T11:20:55.371Z,100162.47
2023-03-06T11:22:06.464Z,100162.47
2023-03-06T11:23:38.336Z,100160.63
2023-03-06T11:24:44.172Z,100151.69
2023-03-06T11:26:01.210Z,100163.25
2023-03-06T11:27:17.075Z,100154.34
2023-03-06T11:29:00.226Z,100165.88
2023-03-06T11:30:06.213Z,100160.59
2023-03-06T11:31:16.429Z,100152.56
2023-03-06T11:32:24.682Z,100151.69
2023-03-06T11:33:58.439Z,100152.59
2023-03-06T11:35:05.722Z,100155.22
2023-03-06T11:36:21.327Z,100149.91
2023-03-06T11:37:31.946Z,100147.25
2023-03-06T11:38:43.206Z,100143.72
2023-03-06T11:39:53.238Z,100136.50
2023-03-06T11:40:59.583Z,100137.34
2023-03-06T11:42:25.876Z,100139.19
2023-03-06T11:43:41.078Z,100143.59
2023-03-06T11:45:05.942Z,100135.59
2023-03-06T11:46:18.573Z,100138.34
2023-03-06T11:47:25.779Z,100142.78
2023-03-06T11:48:53.288Z,100149.91
2023-03-06T11:50:12.884Z,100133.75
2023-03-06T11:51:19.510Z,100145.47
2023-03-06T11:52:43.500Z,100133.91
2023-03-06T11:53:45.110Z,100132.13
2023-03-06T11:54:54.201Z,100127.69
2023-03-06T11:56:22.783Z,100133.09
2023-03-06T11:57:40.964Z,100125.88
2023-03-06T11:58:45.681Z,100135.75
2023-03-06T12:00:11.343Z,100129.50
2023-03-06T12:01:18.700Z,100123.25
2023-03-06T12:02:35.435Z,100125.06
2023-03-06T12:04:14.177Z,100126.88
2023-03-06T12:05:34.417Z,100125.97
2023-03-06T12:06:51.742Z,100125.03
2023-03-06T12:08:17.373Z,100124.19
2023-03-06T12:09:29.035Z,100123.19
2023-03-06T12:10:51.810Z,100120.50
2023-03-06T12:12:18.741Z,100128.47
2023-03-06T12:13:41.305Z,100128.56
2023-03-06T12:15:08.896Z,100124.97
2023-03-06T12:16:25.373Z,100120.47
2023-03-06T12:17:38.862Z,100124.09
2023-03-06T12:19:07.180Z,100117.88
2023-03-06T12:20:42.100Z,100116.03